Latest Coastal Weather Observations for Point Fawcett

IDD60701

Issued at 8:01 pm CST Thursday 19 September 2019 (issued every 10 minutes, with the page automatically refreshed every 10 minutes)

About coastal observations | Map of coastal stations | Coastal observations for NT | Marine services | Other Formats
Station Details ID: 200731 Name: POINT FAWCETT Lat: -11.76 Lon: 130.03 Height: 6.5 m
Data from the previous 72 hours. | See also: Recent months at Point Fawcett
Date/Time
CST
Wind Sea
Height
m
Swell Vis
km
Cloud Weather Temp
°C
Press
hPa
Rain since
9am
mm
Dir  Spd
kts
Gust
kts
Height
m
Period
s
Dir
19/08:00pm N 7 9 - - - - - - - 25.7 1013.3 0.0
19/07:30pm N 7 10 - - - - - - - 25.9 1012.9 0.0
19/07:00pm NNW 8 11 - - - - - - - 26.2 1012.5 0.0
19/06:30pm NNW 7 10 - - - - - - - 27.0 1012.4 0.0
19/06:00pm NW 7 9 - - - - - - - 28.0 1012.2 0.0
19/05:30pm NW 7 9 - - - - - - - 28.9 1012.2 0.0
19/05:00pm WNW 7 9 - - - - - - - 29.1 1012.0 0.0
19/04:30pm WNW 7 9 - - - - - - - 28.9 1011.9 0.0
19/04:00pm W 7 9 - - - - - - - 28.9 1011.9 0.0
19/03:30pm WSW 7 10 - - - - - - - 29.8 1012.1 0.0
19/03:00pm WSW 7 11 - - - - - - - 30.1 1012.2 0.0
19/02:30pm WSW 9 13 - - - - - - - 30.2 1012.4 0.0
19/02:00pm SW 10 14 - - - - - - - 30.2 1012.8 0.0
19/01:30pm WSW 10 15 - - - - - - - 29.6 1013.2 0.0
19/01:00pm WSW 11 15 - - - - - - - 29.8 1013.5 0.0
19/12:30pm WSW 10 15 - - - - - - - 29.3 1014.1 0.0
19/12:00pm WSW 10 13 - - - - - - - 29.3 1014.5 0.0
19/11:30am SW 10 14 - - - - - - - 29.8 1015.0 0.0
19/11:00am W 9 13 - - - - - - - 28.7 1015.5 0.0
19/10:30am WNW 9 11 - - - - - - - 28.4 1015.9 0.0
19/10:00am WNW 6 8 - - - - - - - 28.2 1016.2 0.0
19/09:30am S 5 8 - - - - - - - 28.0 1016.4 0.0
19/09:00am SE 4 5 - - - - - - - 27.4 1016.3 0.0
19/08:30am E 4 5 - - - - - - - 26.3 1016.1 0.0
19/08:00am E 4 5 - - - - - - - 23.3 1015.9 0.0
19/07:30am ESE 4 5 - - - - - - - 19.1 1015.6 0.0
19/07:00am E 5 6 - - - - - - - 17.7 1015.3 0.0
19/06:30am E 5 6 - - - - - - - 18.3 1015.0 0.0
19/06:00am E 5 6 - - - - - - - 18.4 1014.8 0.0
19/05:30am E 5 6 - - - - - - - 18.3 1014.8 0.0
19/05:00am E 5 6 - - - - - - - 18.8 1014.7 0.0
19/04:30am E 5 7 - - - - - - - 20.0 1014.4 0.0
19/04:00am E 5 7 - - - - - - - 20.4 1014.2 0.0
19/03:30am E 5 8 - - - - - - - 19.8 1014.2 0.0
19/03:00am E 6 8 - - - - - - - 20.1 1014.2 0.0
19/02:30am E 5 6 - - - - - - - 20.0 1014.3 0.0
19/02:00am ENE 5 6 - - - - - - - 19.5 1014.5 0.0
19/01:30am ENE 4 5 - - - - - - - 18.1 1014.8 0.0
19/01:00am E 4 4 - - - - - - - 18.4 1015.3 0.0
19/12:30am E 4 5 - - - - - - - 18.6 1015.6 0.0
19/12:00am E 4 4 - - - - - - - 19.0 1015.9 0.0
 
Date/Time
CST
Wind Sea
Height
m
Swell Vis
km
Cloud Weather Temp
°C
Press
hPa
Rain since
9am
mm
Dir  Spd
kts
Gust
kts
Height
m
Period
s
Dir
18/11:30pm SSE 3 4 - - - - - - - 19.6 1016.2 0.0
18/11:00pm SE 3 4 - - - - - - - 20.4 1016.2 0.0
18/10:30pm E 4 5 - - - - - - - 22.0 1016.1 0.0
18/10:00pm E 4 5 - - - - - - - 24.0 1015.8 0.0
18/09:30pm NE 6 9 - - - - - - - 25.4 1015.4 0.0
18/09:00pm NNE 8 11 - - - - - - - 26.0 1014.7 0.0
18/08:30pm NNW 9 12 - - - - - - - 26.0 1014.4 0.0
18/08:00pm NNW 9 12 - - - - - - - 26.0 1014.2 0.0
18/07:30pm NNW 9 12 - - - - - - - 26.1 1014.0 0.0
18/07:00pm NNW 10 12 - - - - - - - 26.3 1013.8 0.0
18/06:30pm NNW 9 11 - - - - - - - 26.7 1013.7 0.0
18/06:00pm NNW 9 13 - - - - - - - 27.7 1013.5 0.0
18/05:30pm NNW 10 13 - - - - - - - 28.3 1013.3 0.0
18/05:00pm NNW 11 15 - - - - - - - 28.9 1013.2 0.0
18/04:30pm NNW 11 14 - - - - - - - 29.8 1013.0 0.0
18/04:00pm NNW 11 15 - - - - - - - 30.5 1013.0 0.0
18/03:30pm N 10 14 - - - - - - - 30.8 1013.0 0.0
18/03:00pm N 9 13 - - - - - - - 31.6 1013.1 0.0
18/02:30pm N 10 14 - - - - - - - 31.8 1013.6 0.0
18/02:00pm E 8 13 - - - - - - - 31.9 1013.9 0.0
18/01:30pm E 8 14 - - - - - - - 32.8 1014.3 0.0
18/01:00pm ESE 8 14 - - - - - - - 31.7 1015.0 0.0
18/12:30pm E 7 15 - - - - - - - 31.3 1015.6 0.0
18/12:00pm NNW 5 8 - - - - - - - 30.6 1016.2 0.0
18/11:30am NNW 7 10 - - - - - - - 30.7 1016.7 0.0
18/11:00am E 5 8 - - - - - - - 31.3 1016.9 0.0
18/10:30am SE 5 11 - - - - - - - 31.0 1017.4 0.0
18/10:00am ENE 6 10 - - - - - - - 30.0 1017.8 0.0
18/09:30am ENE 5 8 - - - - - - - 29.4 1017.9 0.0
18/09:00am E 6 8 - - - - - - - 27.7 1017.8 0.0
18/08:30am E 5 8 - - - - - - - 26.5 1017.7 0.0
18/08:00am E 5 7 - - - - - - - 25.0 1017.5 0.0
18/07:30am ESE 4 6 - - - - - - - 22.2 1017.4 0.0
18/07:00am ESE 4 5 - - - - - - - 21.2 1017.2 0.0
18/06:30am ESE 5 7 - - - - - - - 20.6 1016.8 0.0
18/06:00am ESE 4 6 - - - - - - - 20.7 1016.3 0.0
18/05:30am E 3 4 - - - - - - - 21.1 1016.0 0.0
18/05:00am E 5 7 - - - - - - - 22.2 1015.9 0.0
18/04:30am ESE 4 6 - - - - - - - 20.7 1015.8 0.0
18/04:00am ESE 4 5 - - - - - - - 18.9 1015.4 0.0
18/03:30am ESE 4 4 - - - - - - - 18.5 1015.2 0.0
18/03:00am SE 4 4 - - - - - - - 18.6 1015.1 0.0
18/02:30am SSE 3 4 - - - - - - - 18.8 1015.2 0.0
18/02:00am SSE 4 4 - - - - - - - 19.1 1015.3 0.0
18/01:30am SE 4 4 - - - - - - - 19.3 1015.5 0.0
18/01:00am SE 3 4 - - - - - - - 19.7 1015.7 0.0
18/12:30am SE 3 4 - - - - - - - 19.7 1015.9 0.0
18/12:00am SSE 4 4 - - - - - - - 20.1 1015.9 0.0
 
Date/Time
CST
Wind Sea
Height
m
Swell Vis
km
Cloud Weather Temp
°C
Press
hPa
Rain since
9am
mm
Dir  Spd
kts
Gust
kts
Height
m
Period
s
Dir
17/11:30pm SE 4 4 - - - - - - - 20.6 1016.1 0.0
17/11:00pm SE 3 4 - - - - - - - 21.8 1016.2 0.0
17/10:30pm ENE 4 6 - - - - - - - 24.1 1016.1 0.0
17/10:00pm NE 6 8 - - - - - - - 24.6 1015.8 0.0
17/09:30pm NNE 7 11 - - - - - - - 25.0 1015.4 0.0
17/09:00pm NE 7 11 - - - - - - - 25.2 1014.9 0.0
17/08:30pm NNE 10 15 - - - - - - - 25.6 1014.6 0.0
17/08:00pm NNE 11 16 - - - - - - - 25.9 1014.1 0.0
17/07:30pm N 12 18 - - - - - - - 25.8 1013.9 0.0
17/07:00pm N 14 18 - - - - - - - 26.0 1013.5 0.0
17/06:30pm N 12 17 - - - - - - - 26.3 1013.3 0.0
17/06:00pm N 12 16 - - - - - - - 27.0 1013.2 0.0
17/05:30pm N 11 15 - - - - - - - 28.3 1013.0 0.0
17/05:00pm N 10 14 - - - - - - - 29.2 1013.0 0.0
17/04:30pm N 10 13 - - - - - - - 29.5 1012.9 0.0
17/04:00pm N 11 15 - - - - - - - 30.3 1012.9 0.0
17/03:30pm N 11 15 - - - - - - - 30.7 1012.9 0.0
17/03:00pm N 10 14 - - - - - - - 31.1 1012.9 0.0
17/02:30pm NE 8 13 - - - - - - - 31.5 1013.1 0.0
17/02:00pm SSE 9 14 - - - - - - - 32.0 1013.2 0.0
17/01:30pm SE 10 14 - - - - - - - 31.4 1013.9 0.0
17/01:00pm S 7 11 - - - - - - - 32.7 1014.5 0.0
17/12:30pm SE 7 12 - - - - - - - 31.5 1015.2 0.0
17/12:00pm ESE 6 12 - - - - - - - 32.0 1015.3 0.0
17/11:30am SE 6 11 - - - - - - - 31.5 1016.0 0.0
17/11:00am E 7 11 - - - - - - - 31.1 1016.4 0.0
17/10:30am ESE 6 10 - - - - - - - 29.9 1016.7 0.0
17/10:00am SSE 6 11 - - - - - - - 28.6 1017.0 0.0
17/09:30am ESE 5 9 - - - - - - - 28.8 1016.9 0.0
17/09:00am ESE 6 11 - - - - - - - 27.9 1016.8 0.0
17/08:30am ESE 5 8 - - - - - - - 26.5 1016.7 0.0
17/08:00am ESE 4 6 - - - - - - - 24.3 1016.5 0.0
17/07:30am ESE 4 6 - - - - - - - 21.3 1016.2 0.0
17/07:00am E 5 6 - - - - - - - 20.4 1015.8 0.0
17/06:30am E 4 6 - - - - - - - 21.0 1015.5 0.0
17/06:00am E 6 8 - - - - - - - 21.5 1015.3 0.0
17/05:30am ENE 6 8 - - - - - - - 21.2 1015.2 0.0
17/05:00am E 5 7 - - - - - - - 20.4 1014.9 0.0
17/04:30am E 5 6 - - - - - - - 20.0 1014.5 0.0
17/04:00am E 5 7 - - - - - - - 20.6 1014.1 0.0
17/03:30am E 5 7 - - - - - - - 20.9 1014.1 0.0
17/03:00am E 5 7 - - - - - - - 20.9 1013.8 0.0
17/02:30am E 5 6 - - - - - - - 21.6 1013.9 0.0
17/02:00am ESE 6 8 - - - - - - - 22.1 1013.9 0.0
17/01:30am ESE 6 8 - - - - - - - 22.1 1014.2 0.0
17/01:00am ESE 6 8 - - - - - - - 21.6 1014.3 0.0
17/12:30am ESE 6 8 - - - - - - - 21.1 1014.6 0.0
17/12:00am ESE 5 6 - - - - - - - 19.3 1014.6 0.0
 
Date/Time
CST
Wind Sea
Height
m
Swell Vis
km
Cloud Weather Temp
°C
Press
hPa
Rain since
9am
mm
Dir  Spd
kts
Gust
kts
Height
m
Period
s
Dir
16/11:30pm ESE 4 5 - - - - - - - 19.6 1014.5 0.0
16/11:00pm ENE 4 6 - - - - - - - 21.2 1014.6 0.0
16/10:30pm E 5 7 - - - - - - - 21.4 1014.7 0.0
16/10:00pm E 4 4 - - - - - - - 21.6 1014.6 0.0
16/09:30pm E 4 5 - - - - - - - 24.0 1014.4 0.0
16/09:00pm ENE 5 7 - - - - - - - 24.7 1013.7 0.0
16/08:30pm NE 7 9 - - - - - - - 25.2 1013.5 0.0

Other formats

Comma delimited format used in spreadsheet applications
http://www.bom.gov.au/fwo/IDD60701/IDD60701.94122.axf

JavaScript Object Notation format (JSON) in row-major order
http://www.bom.gov.au/fwo/IDD60701/IDD60701.94122.json

Data quality

Most of these data are generated automatically and are frequently updated. Quality checks on data are not normally performed. It is possible for incorrect values to appear. Refer to information at About Latest Weather Observations and please check the disclaimer before using these data.